This demonstration page uses our WeatherBlox Daily Observations layout. Learn more.

39.92423, -83.80882

Hourly Observations for February 20, 2020

Temp ( °F °C ) Dew Point ( °F °C ) Humidity (%) Winds ( mph kmh ) Pressure ( in mb ) Visibility ( mi km ) Precip ( " mm )
12:56 am 00:56 Cloudy 28 -2.2 24 -4.4 85 85 N 3 6 30.52 1033 10 16.0934 0 0
1:56 am 01:56 Clear 26 -3.3 22 -5.6 84 84 N 5 7 30.51 1033 10 16.0934 0 0
2:56 am 02:56 Clear 26 -3.3 22 -5.6 84 84 N 9 15 30.5 1033 10 16.0934 0 0
3:56 am 03:56 Clear 25 -3.9 20 -6.7 81 81 N 12 19 30.52 1033 10 16.0934 0 0
4:56 am 04:56 Mostly Cloudy 24 -4.4 20 -6.7 84 84 N 9 15 30.52 1033 10 16.0934 0 0
5:56 am 05:56 Mostly Cloudy 24 -4.4 19 -7.2 81 81 N 14 22 30.53 1034 10 16.0934 0 0
6:56 am 06:56 Mostly Clear 22 -5.6 15 -9.4 75 75 N 13 20 30.55 1035 10 16.0934 0 0
7:56 am 07:56 Mostly Cloudy 21 -6.1 15 -9.4 78 78 N 10 17 30.58 1035 10 16.0934 0 0
8:56 am 08:56 Cloudy 21 -6.1 14 -10 74 74 N 12 19 30.6 1036 10 16.0934 0 0
9:56 am 09:56 Mostly Cloudy 24 -4.4 15 -9.4 68 68 N 12 19 30.6 1036 10 16.0934 0 0
10:56 am 10:56 Cloudy 25 -3.9 15 -9.4 66 66 N 13 20 30.6 1036 10 16.0934 0 0
11:56 am 11:56 Cloudy 26 -3.3 15 -9.4 63 63 N 16 26 30.61 1037 10 16.0934 0 0
12:56 pm 12:56 Mostly Cloudy 27 -2.8 15 -9.4 61 61 N 10 17 30.59 1036 10 16.0934 0 0
1:56 pm 13:56 Mostly Sunny 29 -1.7 16 -8.9 58 58 N 13 20 30.57 1035 10 16.0934 0 0
2:56 pm 14:56 Partly Cloudy 29 -1.7 17 -8.3 61 61 NNW 12 19 30.56 1035 10 16.0934 0 0
3:56 pm 15:56 Mostly Cloudy 28 -2.2 13 -10.6 53 53 N 15 24 30.55 1035 10 16.0934 0 0
4:56 pm 16:56 Mostly Sunny 25 -3.9 12 -11.1 58 58 N 14 22 30.57 1035 10 16.0934 0 0
5:56 pm 17:56 Partly Cloudy 24 -4.4 12 -11.1 60 60 N 12 19 30.58 1035 10 16.0934 0 0
6:56 pm 18:56 Clear 22 -5.6 11 -11.7 63 63 N 12 19 30.6 1036 10 16.0934 0 0
7:56 pm 19:56 Clear 19 -7.2 11 -11.7 71 71 N 8 13 30.62 1037 10 16.0934 0 0
8:56 pm 20:56 Clear 19 -7.2 12 -11.1 74 74 N 6 9 30.63 1037 10 16.0934 0 0
9:56 pm 21:56 Clear 19 -7.2 12 -11.1 74 74 NNW 5 7 30.63 1037 10 16.0934 0 0
10:56 pm 22:56 Clear 19 -7.2 12 -11.1 74 74 Calm 30.64 1038 10 16.0934 0 0
11:56 pm 23:56 Clear 18 -7.8 11 -11.7 74 74 NNW 3 6 30.64 1038 10 16.0934 0 0

Powered by AerisWeather